Česky Dansk Deutsch English Español Suomi Français Magyar Italiano Nederlands norsk Polski Português svenska Türkçe

 

Het Weer

Ovda (Israel)

12:50, 22 mei 2016 (GMT)

NWNNE
WE
SWSSE
Home            
Ovda Aqaba Airport Taba Eilat Ma'An Beer-Sheva El Arish Jerusalem Airport Queen Alia Airport Ben-Gurion International Airport Sharm El Sheikhintl Tel Aviv / Sde-Dov Airport Amman Airport Tabuk Guriat Port Said El Tor Mafraq Irbid Sde-Haifa Haifa H-5'Safawi Cairo Airport Hurguada

Om een weerknop op uw website of weblog te plaatsen, copieer onderstaande code en plak die in uw pagina. In het eerste vakje staat HTML-code, in het tweede vakje UBB-code.


Add to Google

Details

Wind speed:3 bf, 8 kn, 4.1 m/s, 9.2 miles/h, 14.8 km/h
Wind direction:NW, 320°
Visibility:Greater than 10000 m, 10 km, 32800 ft, 6.2 miles
Clouds:CAVOC
Temperature:37°C, 99°F
Gefühlte Temperatur:34°C, 94°F
Dew-point:1°C, 34°F
Atmospheric pressure:1010 hPa, 757.6 mmHg, 29.83 inHg, 0.997 atm
Relative humidity:10.5 %
METAR:LLOV 221250Z 32008KT CAVOK 37/01 Q1010 RMK FEW080

Snelkoppelingen

Actuele weersinformatie van de hele wereld. Voeg locaties toe met het plus (+) symbool. Deze snelkoppelingen kunnen worden toegevoegd aan Google.

Lid van de Technetium groep

website free tracking
StatCounter NetStat W3C Validator

17-12-2017 04:48:10
astro.technetium.be money.technetium.be phote.technetium.be tafeltennistafel.technetium.be www.ligfiets.net